• Join FlightAware (Why Join?)
  • Login
  • US Flag 
09:59PM EDT


 

Airport Tracker/Info


-or-


 

Live Flight TrackerFlight Track Log ✈ ADR726 ✈ 02-Jul-2013 ✈ LJLJ / LJU - LATI / TIA

Flight Track Log - Related Links

Times and Time Zones

All times are in EDT time to prevent confusion due to time zone crossing. See the ADR726 flight status page for this flight to view local times or setup timezone preferences in your user account.

Time Position Orientation Groundspeed Altitude Reporting Facility
EDT Latitude Longitude Course Direction KTS MPH feet Rate Location/Type
05:27PM 45.7900 14.9808 140° Southeast  Level Estimated
05:28PM 45.7174 15.0673 140° Southeast  Level Estimated
05:29PM 45.6449 15.1534 140° Southeast  Level Estimated
05:30PM 45.5722 15.2394 140° Southeast  Level Estimated
05:31PM 45.4995 15.3251 140° Southeast  Level Estimated
05:32PM 45.4267 15.4107 140° Southeast  Level Estimated
05:33PM 45.3539 15.4960 141° Southeast  Level Estimated
05:34PM 45.2810 15.5810 141° Southeast  Level Estimated
05:35PM 45.2080 15.6659 141° Southeast  Level Estimated
05:36PM 45.1350 15.7506 141° Southeast  Level Estimated
05:37PM 45.0619 15.8350 141° Southeast  Level Estimated
05:38PM 44.9887 15.9192 141° Southeast  Level Estimated
05:39PM 44.9155 16.0032 141° Southeast  Level Estimated
05:40PM 44.8423 16.0870 141° Southeast  Level Estimated
05:41PM 44.7689 16.1705 141° Southeast  Level Estimated
05:42PM 44.6955 16.2539 141° Southeast  Level Estimated
05:43PM 44.6221 16.3370 141° Southeast  Level Estimated
05:44PM 44.5485 16.4200 141° Southeast  Level Estimated
05:45PM 44.4749 16.5027 141° Southeast  Level Estimated
05:46PM 44.4013 16.5852 141° Southeast  Level Estimated
05:47PM 44.3276 16.6675 141° Southeast  Level Estimated
05:48PM 44.2538 16.7497 141° Southeast  Level Estimated
05:49PM 44.1800 16.8316 141° Southeast  Level Estimated
05:50PM 44.1062 16.9133 142° Southeast  Level Estimated
05:51PM 44.0322 16.9947 142° Southeast  Level Estimated
05:52PM 43.9582 17.0760 142° Southeast  Level Estimated
05:53PM 43.8842 17.1571 142° Southeast  Level Estimated
05:54PM 43.8101 17.2380 142° Southeast  Level Estimated
05:55PM 43.7359 17.3187 142° Southeast  Level Estimated
05:56PM 43.6617 17.3992 142° Southeast  Level Estimated
05:57PM 43.5874 17.4795 142° Southeast  Level Estimated
05:58PM 43.5131 17.5595 142° Southeast  Level Estimated
05:59PM 43.4387 17.6394 142° Southeast  Level Estimated
06:00PM 43.3643 17.7191 142° Southeast  Level Estimated
06:01PM 43.2898 17.7986 142° Southeast  Level Estimated
06:02PM 43.2152 17.8779 142° Southeast  Level Estimated
06:03PM 43.1406 17.9570 142° Southeast  Level Estimated
06:04PM 43.0660 18.0360 142° Southeast  Level Estimated
06:05PM 42.9913 18.1147 142° Southeast  Level Estimated
06:06PM 42.9165 18.1932 142° Southeast  Level Estimated
06:07PM 42.8417 18.2716 142° Southeast  Level Estimated
06:08PM 42.7668 18.3497 143° Southeast  Level Estimated
06:09PM 42.6919 18.4277 143° Southeast  Level Estimated
06:10PM 42.6169 18.5055 143° Southeast  Level Estimated
06:11PM 42.5419 18.5830 143° Southeast  Level Estimated
06:12PM 42.4668 18.6604 143° Southeast  Level Estimated
06:13PM 42.3916 18.7377 143° Southeast  Level Estimated
06:14PM 42.3164 18.8147 143° Southeast  Level Estimated
06:15PM 42.2412 18.8916 143° Southeast  Level Estimated
06:16PM 42.1659 18.9682 143° Southeast  Level Estimated
06:17PM 42.0906 19.0447 143° Southeast  Level Estimated
06:18PM 42.0152 19.1210 143° Southeast  Level Estimated
06:19PM 41.9398 19.1971 143° Southeast  Level Estimated
06:20PM 41.8643 19.2731 143° Southeast  Level Estimated
06:21PM 41.7887 19.3488 143° Southeast  Level Estimated
06:22PM 41.7131 19.4244 143° Southeast  Level Estimated
06:23PM 41.6375 19.4998 143° Southeast  Level Estimated
06:24PM 41.5618 19.5751 143° Southeast  Level Estimated
06:25PM 41.4861 19.6501 143° Southeast  Level Estimated
06:26PM 41.4147 19.7206 143° Southeast  Level Estimated
06:27PM 41.4147 19.7206 21° North  Level Estimated